TimeMDT,TemperatureF,Dew PointF,Humidity,Sea Level PressureIn,VisibilityMPH,Wind Direction,Wind SpeedMPH,Gust SpeedMPH,PrecipitationIn,Events,Conditions,WindDirDegrees,DateUTC
12:15 AM,62.6,17.6,18,29.82,10.0,ESE,4.6,-,N/A,,Clear,120,2013-04-08 06:15:00
12:35 AM,59.0,17.6,20,29.81,10.0,SSE,5.8,-,N/A,,Clear,160,2013-04-08 06:35:00
12:55 AM,64.4,19.4,18,29.81,10.0,SSW,4.6,-,N/A,,Clear,200,2013-04-08 06:55:00
1:15 AM,59.0,19.4,22,29.81,10.0,SSE,4.6,-,N/A,,Clear,150,2013-04-08 07:15:00
1:35 AM,64.4,19.4,18,29.80,10.0,SSE,3.5,-,N/A,,Clear,150,2013-04-08 07:35:00
1:55 AM,57.2,17.6,21,29.79,10.0,SE,4.6,-,N/A,,Clear,140,2013-04-08 07:55:00
2:15 AM,57.2,17.6,21,29.79,10.0,SE,9.2,-,N/A,,Clear,130,2013-04-08 08:15:00
2:35 AM,57.2,17.6,21,29.78,10.0,SE,6.9,-,N/A,,Clear,130,2013-04-08 08:35:00
2:55 AM,57.2,19.4,23,29.78,10.0,SE,9.2,-,N/A,,Clear,130,2013-04-08 08:55:00
3:15 AM,59.0,19.4,22,29.78,10.0,SE,6.9,-,N/A,,Clear,140,2013-04-08 09:15:00
3:35 AM,57.2,21.2,25,29.78,10.0,SSE,5.8,-,N/A,,Clear,150,2013-04-08 09:35:00
3:55 AM,62.6,23.0,22,29.77,10.0,SSE,5.8,-,N/A,,Clear,150,2013-04-08 09:55:00
4:15 AM,55.4,21.2,26,29.77,10.0,ESE,5.8,-,N/A,,Clear,120,2013-04-08 10:15:00
4:35 AM,55.4,21.2,26,29.78,10.0,South,5.8,-,N/A,,Clear,180,2013-04-08 10:35:00
4:55 AM,57.2,19.4,23,29.78,10.0,South,12.7,-,N/A,,Clear,170,2013-04-08 10:55:00
5:15 AM,57.2,19.4,23,29.78,10.0,SSE,13.8,-,N/A,,Clear,150,2013-04-08 11:15:00
5:35 AM,57.2,19.4,23,29.79,10.0,SSE,10.4,-,N/A,,Clear,160,2013-04-08 11:35:00
5:55 AM,57.2,19.4,23,29.79,10.0,SSE,9.2,-,N/A,,Clear,150,2013-04-08 11:55:00
6:15 AM,55.4,19.4,25,29.78,10.0,SSE,9.2,-,N/A,,Clear,150,2013-04-08 12:15:00
6:35 AM,57.2,19.4,23,29.79,10.0,SSE,9.2,-,N/A,,Clear,160,2013-04-08 12:35:00
6:55 AM,57.2,21.2,25,29.79,10.0,SSE,8.1,-,N/A,,Clear,150,2013-04-08 12:55:00
7:15 AM,55.4,21.2,26,29.79,10.0,SSE,8.1,-,N/A,,Clear,150,2013-04-08 13:15:00
7:35 AM,59.0,23.0,25,29.80,10.0,SE,9.2,-,N/A,,Clear,140,2013-04-08 13:35:00
7:55 AM,62.6,23.0,22,29.80,10.0,SSE,10.4,-,N/A,,Clear,150,2013-04-08 13:55:00
8:15 AM,64.4,24.8,22,29.80,10.0,South,12.7,-,N/A,,Clear,170,2013-04-08 14:15:00
8:35 AM,68.0,24.8,20,29.80,10.0,South,15.0,-,N/A,,Clear,180,2013-04-08 14:35:00
8:55 AM,68.0,24.8,20,29.80,10.0,South,11.5,-,N/A,,Clear,180,2013-04-08 14:55:00
9:15 AM,68.0,26.6,21,29.80,10.0,South,8.1,-,N/A,,Clear,170,2013-04-08 15:15:00
9:35 AM,69.8,26.6,20,29.79,10.0,SSW,11.5,-,N/A,,Clear,200,2013-04-08 15:35:00
9:55 AM,71.6,26.6,19,29.79,10.0,SW,12.7,18.4,N/A,,Clear,220,2013-04-08 15:55:00
10:15 AM,71.6,26.6,19,29.78,10.0,SW,18.4,23.0,N/A,,Clear,220,2013-04-08 16:15:00
10:35 AM,73.4,26.6,18,29.78,9.0,SW,20.7,27.6,N/A,,Clear,230,2013-04-08 16:35:00
10:55 AM,73.4,24.8,16,29.77,10.0,SW,19.6,31.1,N/A,,Clear,230,2013-04-08 16:55:00
11:15 AM,73.4,24.8,16,29.76,10.0,SW,20.7,32.2,N/A,,Clear,220,2013-04-08 17:15:00
11:35 AM,73.4,24.8,16,29.75,10.0,SW,16.1,27.6,N/A,,Clear,220,2013-04-08 17:35:00
11:55 AM,75.2,28.4,18,29.74,10.0,SSW,15.0,23.0,N/A,,Clear,210,2013-04-08 17:55:00
12:15 PM,75.2,26.6,17,29.72,10.0,SSW,25.3,31.1,N/A,,Clear,210,2013-04-08 18:15:00
12:35 PM,75.2,24.8,15,29.71,10.0,SSW,17.3,29.9,N/A,,Clear,210,2013-04-08 18:35:00
12:55 PM,77.0,23.0,13,29.70,10.0,SSW,21.9,26.5,N/A,,Clear,200,2013-04-08 18:55:00
1:15 PM,77.0,23.0,13,29.68,10.0,SW,19.6,26.5,N/A,,Clear,220,2013-04-08 19:15:00
1:35 PM,77.0,23.0,13,29.67,10.0,South,23.0,29.9,N/A,,Clear,190,2013-04-08 19:35:00
1:55 PM,77.0,23.0,13,29.66,10.0,South,15.0,27.6,N/A,,Clear,190,2013-04-08 19:55:00
2:15 PM,78.8,23.0,13,29.65,8.0,SSW,20.7,35.7,N/A,,Clear,200,2013-04-08 20:15:00
2:35 PM,78.8,21.2,12,29.64,9.0,South,24.2,35.7,N/A,,Clear,190,2013-04-08 20:35:00
2:38 PM,-9999,-9999,N/A,-9999,-9999.0,North,-9999.0,-,N/A,,Unknown,0,2013-04-08 20:38:00
2:55 PM,78.8,19.4,11,29.63,10.0,South,18.4,35.7,N/A,,Clear,180,2013-04-08 20:55:00
3:15 PM,80.6,19.4,10,29.62,10.0,SSW,23.0,31.1,N/A,,Clear,210,2013-04-08 21:15:00
3:35 PM,80.6,19.4,10,29.60,10.0,South,19.6,29.9,N/A,,Clear,170,2013-04-08 21:35:00
3:55 PM,80.6,19.4,10,29.59,10.0,SSW,17.3,32.2,N/A,,Clear,210,2013-04-08 21:55:00
4:15 PM,80.6,19.4,10,29.57,10.0,South,27.6,40.3,N/A,,Clear,190,2013-04-08 22:15:00
4:35 PM,80.6,21.2,11,29.55,10.0,South,20.7,27.6,N/A,,Clear,170,2013-04-08 22:35:00
4:55 PM,80.6,21.2,11,29.54,10.0,South,16.1,25.3,N/A,,Clear,190,2013-04-08 22:55:00
5:15 PM,80.6,15.8,9,29.53,5.0,SW,25.3,36.8,N/A,,Haze,220,2013-04-08 23:15:00
5:35 PM,80.6,15.8,9,29.53,5.0,SW,19.6,33.4,N/A,,Haze,220,2013-04-08 23:35:00
5:55 PM,80.6,17.6,10,29.53,5.0,SW,23.0,34.5,N/A,,Haze,220,2013-04-08 23:55:00
6:15 PM,78.8,17.6,10,29.52,5.0,SW,21.9,33.4,N/A,,Haze,220,2013-04-09 00:15:00
6:35 PM,77.0,17.6,11,29.52,5.0,SSW,18.4,27.6,N/A,,Haze,210,2013-04-09 00:35:00
6:55 PM,77.0,17.6,11,29.52,4.0,SW,19.6,27.6,N/A,,Haze,220,2013-04-09 00:55:00
7:15 PM,77.0,15.8,10,29.52,6.0,SSW,18.4,26.5,N/A,,Haze,210,2013-04-09 01:15:00
7:35 PM,75.2,15.8,11,29.53,5.0,SSW,19.6,27.6,N/A,,Haze,210,2013-04-09 01:35:00
7:55 PM,73.4,15.8,11,29.53,5.0,South,15.0,20.7,N/A,,Haze,190,2013-04-09 01:55:00
8:15 PM,73.4,15.8,11,29.53,5.0,South,18.4,23.0,N/A,,Haze,190,2013-04-09 02:15:00
8:35 PM,71.6,15.8,12,29.54,5.0,South,17.3,-,N/A,,Haze,190,2013-04-09 02:35:00
8:55 PM,71.6,17.6,13,29.54,6.0,SSW,16.1,24.2,N/A,,Haze,210,2013-04-09 02:55:00
9:15 PM,71.6,19.4,14,29.55,7.0,SW,19.6,26.5,N/A,,Clear,220,2013-04-09 03:15:00
9:35 PM,69.8,19.4,15,29.55,7.0,South,13.8,-,N/A,,Clear,180,2013-04-09 03:35:00
9:55 PM,68.0,17.6,15,29.55,7.0,South,17.3,21.9,N/A,,Clear,170,2013-04-09 03:55:00
10:15 PM,68.0,17.6,15,29.55,8.0,SSE,16.1,20.7,N/A,,Clear,160,2013-04-09 04:15:00
10:35 PM,68.0,17.6,15,29.55,8.0,South,11.5,20.7,N/A,,Clear,190,2013-04-09 04:35:00
10:55 PM,68.0,19.4,16,29.55,8.0,SSE,16.1,21.9,N/A,,Clear,150,2013-04-09 04:55:00
11:15 PM,68.0,21.2,17,29.55,7.0,SSE,12.7,18.4,N/A,,Clear,150,2013-04-09 05:15:00
11:35 PM,66.2,23.0,19,29.56,7.0,South,10.4,-,N/A,,Clear,180,2013-04-09 05:35:00
11:55 PM,66.2,23.0,19,29.55,6.0,SSE,15.0,-,N/A,,Haze,150,2013-04-09 05:55:00